createdAt,value
2018-04-10T00:00:38.117Z,34.60
2018-04-10T00:01:38.122Z,35.80
2018-04-10T00:02:38.088Z,34.20
2018-04-10T00:03:38.082Z,34.50
2018-04-10T00:04:38.068Z,34.30
2018-04-10T00:05:38.051Z,34.70
2018-04-10T00:06:38.055Z,34.70
2018-04-10T00:07:38.024Z,35.70
2018-04-10T00:08:38.006Z,34.50
2018-04-10T00:09:37.998Z,35.50
2018-04-10T00:10:38.003Z,35.80
2018-04-10T00:11:38.002Z,35.80
2018-04-10T00:12:37.956Z,35.70
2018-04-10T00:13:37.941Z,35.60
2018-04-10T00:14:37.931Z,35.80
2018-04-10T00:15:37.922Z,36.70
2018-04-10T00:16:37.912Z,35.30
2018-04-10T00:17:37.908Z,36.80
2018-04-10T00:18:37.877Z,36.50
2018-04-10T00:19:37.866Z,36.70
2018-04-10T00:20:37.855Z,36.40
2018-04-10T00:21:37.839Z,36.20
2018-04-10T00:22:37.829Z,36.90
2018-04-10T00:23:37.833Z,36.60
2018-04-10T00:24:37.802Z,37.40
2018-04-10T00:25:37.786Z,36.80
2018-04-10T00:26:37.774Z,37.30
2018-04-10T00:27:37.788Z,36.50
2018-04-10T00:28:37.767Z,37.40
2018-04-10T00:29:37.729Z,37.00
2018-04-10T00:30:37.720Z,38.30
2018-04-10T00:31:37.707Z,37.60
2018-04-10T00:32:37.692Z,39.30
2018-04-10T00:33:37.703Z,39.20
2018-04-10T00:34:37.665Z,38.90
2018-04-10T00:35:37.651Z,39.30
2018-04-10T00:36:37.659Z,41.70
2018-04-10T00:37:37.630Z,40.00
2018-04-10T00:38:37.626Z,39.60
2018-04-10T00:39:37.630Z,40.40
2018-04-10T00:40:37.590Z,41.10
2018-04-10T00:41:37.576Z,41.10
2018-04-10T00:42:37.559Z,41.40
2018-04-10T00:43:37.549Z,41.00
2018-04-10T00:44:37.532Z,40.80
2018-04-10T00:45:37.539Z,42.20
2018-04-10T00:46:37.505Z,41.00
2018-04-10T00:47:37.494Z,40.30
2018-04-10T00:48:37.478Z,40.50
2018-04-10T00:49:37.470Z,41.20
2018-04-10T00:50:37.472Z,40.50
2018-04-10T00:51:37.442Z,42.40
2018-04-10T00:52:37.422Z,41.80
2018-04-10T00:53:37.409Z,41.70
2018-04-10T00:54:37.398Z,42.10
2018-04-10T00:55:37.382Z,40.40
2018-04-10T00:56:37.385Z,41.90
2018-04-10T00:57:37.356Z,41.90
2018-04-10T00:58:37.345Z,44.40
2018-04-10T00:59:37.330Z,41.60
2018-04-10T01:00:37.333Z,42.40
2018-04-10T01:01:37.308Z,41.60
2018-04-10T01:02:37.289Z,41.10
2018-04-10T01:03:37.298Z,42.10
2018-04-10T01:04:37.263Z,41.50
2018-04-10T01:05:37.249Z,41.60
2018-04-10T01:06:37.247Z,42.50
2018-04-10T01:07:37.225Z,41.80
2018-04-10T01:08:37.216Z,41.40
2018-04-10T01:09:37.196Z,41.40
2018-04-10T01:10:37.183Z,41.40
2018-04-10T01:11:37.186Z,41.50
2018-04-10T01:12:37.174Z,41.30
2018-04-10T01:13:37.146Z,41.90
2018-04-10T01:14:37.130Z,42.40
2018-04-10T01:15:37.109Z,41.80
2018-04-10T01:16:37.103Z,42.10
2018-04-10T01:17:37.097Z,41.70
2018-04-10T01:18:37.110Z,42.10
2018-04-10T01:19:37.058Z,43.30
2018-04-10T01:20:37.052Z,41.50
2018-04-10T01:21:37.030Z,42.10
2018-04-10T01:22:37.043Z,42.20
2018-04-10T01:23:37.007Z,42.10
2018-04-10T01:24:37.010Z,42.20
2018-04-10T01:25:36.978Z,42.20
2018-04-10T01:26:36.966Z,42.20
2018-04-10T01:27:36.947Z,41.80
2018-04-10T01:28:36.936Z,42.00
2018-04-10T01:29:36.952Z,43.30
2018-04-10T01:30:36.919Z,44.40
2018-04-10T01:31:36.893Z,41.50
2018-04-10T01:32:36.889Z,41.60
2018-04-10T01:33:36.874Z,42.90
2018-04-10T01:34:36.862Z,42.40
2018-04-10T01:35:36.854Z,41.80
2018-04-10T01:36:36.830Z,42.50
2018-04-10T01:37:36.817Z,44.10
2018-04-10T01:38:36.834Z,41.90
2018-04-10T01:39:36.882Z,42.70
2018-04-10T01:40:36.779Z,42.50
2018-04-10T01:41:36.761Z,43.50
2018-04-10T01:42:36.772Z,42.80
2018-04-10T01:43:36.773Z,42.20
2018-04-10T01:44:36.753Z,43.70
2018-04-10T01:45:36.725Z,42.90
2018-04-10T01:46:36.699Z,43.40
2018-04-10T01:47:36.675Z,42.20
2018-04-10T01:48:36.665Z,43.30
2018-04-10T01:49:36.655Z,42.90
2018-04-10T01:50:36.658Z,43.60
2018-04-10T01:51:36.623Z,43.20
2018-04-10T01:52:36.613Z,43.70
2018-04-10T01:53:36.598Z,44.00
2018-04-10T01:54:36.582Z,44.80
2018-04-10T01:55:36.591Z,45.10
2018-04-10T01:56:36.557Z,43.30
2018-04-10T01:57:36.542Z,42.80
2018-04-10T01:58:36.531Z,41.00
2018-04-10T01:59:36.522Z,41.40
2018-04-10T02:00:36.500Z,41.40
2018-04-10T02:01:36.504Z,41.30
2018-04-10T02:02:36.478Z,42.10
2018-04-10T02:03:36.467Z,42.10
2018-04-10T02:04:36.448Z,41.70
2018-04-10T02:05:36.432Z,40.60
2018-04-10T02:06:36.438Z,40.30
2018-04-10T02:07:36.409Z,42.10
2018-04-10T02:08:36.413Z,40.80
2018-04-10T02:09:36.384Z,40.70
2018-04-10T02:10:36.371Z,40.60
2018-04-10T02:11:36.368Z,42.20
2018-04-10T02:12:36.371Z,41.10
2018-04-10T02:13:36.341Z,40.50
2018-04-10T02:14:36.317Z,41.80
2018-04-10T02:15:36.299Z,40.60
2018-04-10T02:16:36.286Z,41.50
2018-04-10T02:17:36.303Z,41.40
2018-04-10T02:18:36.265Z,40.40
2018-04-10T02:19:36.252Z,40.20
2018-04-10T02:20:36.230Z,40.60
2018-04-10T02:21:36.217Z,41.40
2018-04-10T02:22:36.203Z,40.60
2018-04-10T02:23:36.210Z,39.20
2018-04-10T02:24:36.175Z,40.00
2018-04-10T02:25:36.165Z,40.40
2018-04-10T02:26:36.157Z,41.30
2018-04-10T02:27:36.134Z,40.20
2018-04-10T02:28:36.143Z,39.90
2018-04-10T02:29:36.110Z,39.70
2018-04-10T02:30:36.096Z,41.10
2018-04-10T02:31:36.084Z,40.70
2018-04-10T02:32:36.074Z,39.70
2018-04-10T02:33:36.055Z,40.90
2018-04-10T02:34:36.062Z,39.10
2018-04-10T02:35:36.032Z,40.50
2018-04-10T02:36:36.038Z,39.80
2018-04-10T02:37:36.001Z,40.30
2018-04-10T02:38:35.992Z,40.70
2018-04-10T02:39:35.975Z,41.10
2018-04-10T02:40:35.975Z,40.20
2018-04-10T02:41:35.949Z,41.00
2018-04-10T02:42:35.952Z,41.40
2018-04-10T02:43:35.923Z,40.80
2018-04-10T02:44:35.907Z,40.70
2018-04-10T02:45:35.892Z,40.20
2018-04-10T02:46:35.882Z,40.40
2018-04-10T02:47:35.882Z,41.10
2018-04-10T02:48:35.854Z,40.40
2018-04-10T02:49:35.834Z,40.50
2018-04-10T02:50:35.825Z,41.10
2018-04-10T02:51:35.809Z,40.80
2018-04-10T02:52:35.835Z,41.10
2018-04-10T02:53:35.793Z,41.80
2018-04-10T02:54:35.773Z,41.10
2018-04-10T02:55:35.748Z,40.50
2018-04-10T02:56:35.741Z,40.30
2018-04-10T02:57:35.733Z,41.50
2018-04-10T02:58:35.756Z,41.00
2018-04-10T02:59:35.709Z,41.80
2018-04-10T03:00:35.688Z,40.80
2018-04-10T03:01:35.680Z,42.50
2018-04-10T03:02:35.658Z,42.40
2018-04-10T03:03:35.650Z,41.70
2018-04-10T03:04:35.668Z,40.10
2018-04-10T03:05:35.616Z,40.80
2018-04-10T03:06:35.604Z,40.50
2018-04-10T03:07:35.589Z,40.40
2018-04-10T03:08:35.579Z,39.70
2018-04-10T03:09:35.561Z,41.60
2018-04-10T03:10:35.562Z,41.30
2018-04-10T03:11:35.540Z,40.50
2018-04-10T03:12:35.528Z,43.20
2018-04-10T03:13:35.510Z,41.30
2018-04-10T03:14:35.497Z,43.20
2018-04-10T03:15:35.488Z,41.30
2018-04-10T03:16:35.483Z,40.40
2018-04-10T03:17:35.452Z,41.60
2018-04-10T03:18:35.457Z,41.30
2018-04-10T03:19:35.449Z,41.10
2018-04-10T03:20:35.424Z,41.20
2018-04-10T03:21:35.407Z,41.40
2018-04-10T03:22:35.401Z,40.80
2018-04-10T03:23:35.379Z,40.40
2018-04-10T03:24:35.363Z,41.30
2018-04-10T03:25:35.347Z,40.00
2018-04-10T03:26:35.336Z,41.10
2018-04-10T03:27:35.340Z,43.10
2018-04-10T03:28:35.310Z,41.30
2018-04-10T03:29:35.320Z,41.70
2018-04-10T03:30:35.286Z,40.70
2018-04-10T03:31:35.270Z,41.70
2018-04-10T03:32:35.257Z,40.50
2018-04-10T03:33:35.248Z,40.80
2018-04-10T03:34:35.244Z,41.30
2018-04-10T03:35:35.222Z,39.20
2018-04-10T03:36:35.200Z,42.00
2018-04-10T03:37:35.190Z,41.60
2018-04-10T03:38:35.177Z,40.30
2018-04-10T03:39:35.183Z,40.90
2018-04-10T03:40:35.141Z,40.60
2018-04-10T03:41:35.132Z,40.90
2018-04-10T03:42:35.126Z,41.40
2018-04-10T03:43:35.115Z,41.80
2018-04-10T03:44:35.094Z,42.60
2018-04-10T03:45:56.101Z,40.50
2018-04-10T03:46:35.055Z,40.90
2018-04-10T03:47:35.049Z,43.00
2018-04-10T03:48:35.035Z,40.80
2018-04-10T03:49:35.028Z,42.60
2018-04-10T03:50:35.034Z,41.20
2018-04-10T03:51:35.006Z,40.80
2018-04-10T03:52:34.984Z,43.00
2018-04-10T03:53:34.976Z,40.90
2018-04-10T03:54:34.954Z,43.10
2018-04-10T03:55:34.962Z,41.70
2018-04-10T03:56:34.948Z,40.30
2018-04-10T03:57:34.938Z,39.50
2018-04-10T03:58:34.932Z,41.00
2018-04-10T03:59:34.891Z,40.00
2018-04-10T04:00:34.874Z,39.20
2018-04-10T04:01:55.871Z,40.30
2018-04-10T04:02:34.849Z,40.00
2018-04-10T04:03:34.833Z,39.30
2018-04-10T04:04:34.826Z,38.40
2018-04-10T04:05:34.801Z,38.50
2018-04-10T04:06:34.792Z,39.60
2018-04-10T04:07:34.798Z,38.20
2018-04-10T04:08:34.759Z,39.20
2018-04-10T04:09:34.756Z,39.90
2018-04-10T04:10:34.740Z,38.10
2018-04-10T04:11:34.721Z,39.00
2018-04-10T04:12:34.721Z,38.90
2018-04-10T04:13:34.701Z,38.90
2018-04-10T04:14:34.686Z,40.00
2018-04-10T04:15:34.674Z,38.00
2018-04-10T04:16:34.650Z,38.20
2018-04-10T04:17:34.663Z,38.90
2018-04-10T04:18:34.682Z,42.60
2018-04-10T04:19:34.626Z,37.90
2018-04-10T04:20:34.618Z,38.30
2018-04-10T04:21:34.583Z,37.40
2018-04-10T04:22:34.570Z,38.00
2018-04-10T04:23:34.562Z,37.90
2018-04-10T04:24:34.559Z,37.80
2018-04-10T04:25:34.547Z,37.10
2018-04-10T04:26:49.359Z,38.00
2018-04-10T04:27:34.502Z,37.70
2018-04-10T04:28:39.293Z,38.70
2018-04-10T04:29:34.580Z,38.40
2018-04-10T04:30:34.485Z,39.00
2018-04-10T04:31:34.457Z,38.00
2018-04-10T04:32:34.429Z,38.40
2018-04-10T04:33:34.430Z,38.10
2018-04-10T04:34:34.412Z,36.80
2018-04-10T04:35:34.393Z,37.90
2018-04-10T04:36:34.393Z,37.80
2018-04-10T04:37:34.370Z,38.00
2018-04-10T04:38:34.345Z,37.30
2018-04-10T04:39:34.337Z,37.60
2018-04-10T04:40:34.335Z,38.50
2018-04-10T04:41:34.355Z,37.70
2018-04-10T04:42:34.294Z,37.20
2018-04-10T04:43:34.279Z,37.10
2018-04-10T04:44:34.267Z,37.00
2018-04-10T04:45:34.259Z,37.10
2018-04-10T04:46:34.241Z,36.90
2018-04-10T04:47:34.250Z,36.40
2018-04-10T04:48:34.220Z,37.50
2018-04-10T04:49:34.206Z,37.00
2018-04-10T04:50:34.189Z,37.00
2018-04-10T04:51:34.174Z,36.50
2018-04-10T04:52:34.179Z,38.00
2018-04-10T04:53:34.145Z,37.20
2018-04-10T04:54:35.417Z,36.90
2018-04-10T04:55:37.060Z,36.50
2018-04-10T04:56:34.112Z,36.50
2018-04-10T04:57:34.119Z,37.10
2018-04-10T04:58:34.093Z,37.20
2018-04-10T04:59:34.069Z,41.10
2018-04-10T05:00:34.048Z,35.90
2018-04-10T05:01:34.038Z,35.90
2018-04-10T05:02:34.030Z,37.10
2018-04-10T05:03:34.026Z,37.00
2018-04-10T05:04:34.016Z,36.70
2018-04-10T05:05:33.982Z,36.40
2018-04-10T05:06:33.965Z,36.70
2018-04-10T05:07:33.953Z,38.50
2018-04-10T05:08:33.938Z,37.50
2018-04-10T05:09:33.950Z,36.90
2018-04-10T05:10:33.937Z,37.50
2018-04-10T05:11:33.909Z,37.10
2018-04-10T05:12:33.887Z,37.30
2018-04-10T05:13:33.893Z,37.60
2018-04-10T05:14:33.906Z,36.30
2018-04-10T05:15:33.858Z,38.20
2018-04-10T05:16:33.849Z,39.10
2018-04-10T05:17:33.817Z,37.40
2018-04-10T05:18:33.806Z,34.40
2018-04-10T05:19:33.793Z,39.30
2018-04-10T05:20:33.791Z,40.20
2018-04-10T05:21:33.768Z,37.80
2018-04-10T05:22:33.787Z,34.60
2018-04-10T05:23:33.744Z,35.80
2018-04-10T05:24:33.740Z,34.40
2018-04-10T05:25:33.715Z,34.60
2018-04-10T05:26:33.698Z,37.40
2018-04-10T05:27:33.689Z,36.50
2018-04-10T05:28:33.689Z,34.30
2018-04-10T05:29:33.656Z,35.50
2018-04-10T05:30:33.642Z,36.60
2018-04-10T05:31:33.631Z,36.00
2018-04-10T05:32:54.630Z,36.10
2018-04-10T05:33:33.611Z,35.40
2018-04-10T05:34:33.591Z,38.30
2018-04-10T05:35:33.575Z,37.20
2018-04-10T05:36:33.564Z,33.60
2018-04-10T05:37:33.565Z,35.50
2018-04-10T05:38:33.607Z,34.80
2018-04-10T05:39:33.542Z,34.90
2018-04-10T05:40:33.510Z,35.30
2018-04-10T05:41:33.498Z,34.70
2018-04-10T05:42:33.485Z,35.70
2018-04-10T05:43:33.473Z,35.30
2018-04-10T05:44:33.466Z,35.20
2018-04-10T05:45:33.438Z,34.40
2018-04-10T05:46:33.430Z,34.00
2018-04-10T05:47:33.418Z,34.10
2018-04-10T05:48:33.402Z,34.30
2018-04-10T05:49:33.402Z,35.00
2018-04-10T05:50:33.373Z,33.60
2018-04-10T05:51:33.363Z,37.10
2018-04-10T05:52:33.350Z,32.90
2018-04-10T05:53:33.329Z,36.00
2018-04-10T05:54:33.337Z,34.80
2018-04-10T05:55:33.307Z,34.40
2018-04-10T05:56:33.294Z,34.00
2018-04-10T05:57:33.284Z,35.80
2018-04-10T05:58:33.267Z,35.00
2018-04-10T05:59:33.272Z,34.30
2018-04-10T06:00:33.282Z,34.60
2018-04-10T06:01:33.230Z,38.50
2018-04-10T06:02:33.211Z,41.90
2018-04-10T06:03:33.196Z,39.20
2018-04-10T06:04:33.187Z,37.10
2018-04-10T06:05:33.168Z,37.70
2018-04-10T06:06:33.183Z,40.40
2018-04-10T06:07:33.148Z,37.70
2018-04-10T06:08:33.133Z,37.20
2018-04-10T06:09:33.120Z,41.90
2018-04-10T06:10:33.107Z,37.50
2018-04-10T06:11:33.099Z,40.40
2018-04-10T06:12:33.098Z,40.20
2018-04-10T06:13:33.071Z,38.20
2018-04-10T06:14:33.054Z,38.20
2018-04-10T06:15:33.037Z,38.40
2018-04-10T06:16:33.061Z,36.10
2018-04-10T06:17:33.033Z,35.80
2018-04-10T06:18:33.005Z,33.90
2018-04-10T06:19:32.991Z,35.00
2018-04-10T06:20:32.973Z,34.60
2018-04-10T06:21:32.962Z,35.00
2018-04-10T06:22:32.968Z,36.10
2018-04-10T06:23:32.936Z,37.10
2018-04-10T06:24:32.926Z,32.90
2018-04-10T06:25:32.908Z,34.80
2018-04-10T06:26:32.897Z,34.80
2018-04-10T06:27:32.907Z,35.20
2018-04-10T06:28:32.890Z,32.10
2018-04-10T06:29:32.856Z,33.50
2018-04-10T06:30:32.842Z,32.50
2018-04-10T06:31:32.831Z,33.30
2018-04-10T06:32:32.834Z,31.00
2018-04-10T06:33:32.838Z,30.50
2018-04-10T06:34:32.793Z,33.70
2018-04-10T06:35:32.779Z,32.00
2018-04-10T06:36:32.783Z,32.90
2018-04-10T06:37:32.760Z,32.10
2018-04-10T06:38:32.742Z,32.20
2018-04-10T06:39:32.747Z,33.10
2018-04-10T06:40:32.710Z,31.80
2018-04-10T06:41:32.691Z,31.20
2018-04-10T06:42:32.697Z,28.00
2018-04-10T06:43:32.671Z,29.30
2018-04-10T06:44:32.677Z,29.20
2018-04-10T06:45:32.676Z,31.10
2018-04-10T06:46:32.626Z,31.80
2018-04-10T06:47:32.620Z,30.10
2018-04-10T06:48:32.606Z,32.80
2018-04-10T06:49:32.594Z,32.80
2018-04-10T06:50:32.593Z,33.80
2018-04-10T06:51:32.594Z,33.90
2018-04-10T06:52:32.558Z,31.70
2018-04-10T06:53:32.542Z,32.10
2018-04-10T06:54:35.327Z,32.00
2018-04-10T06:55:32.519Z,31.90
2018-04-10T06:56:32.503Z,32.90
2018-04-10T06:57:32.520Z,33.90
2018-04-10T06:58:32.491Z,33.60
2018-04-10T06:59:32.462Z,34.00
2018-04-10T07:05:30.710Z,31.00
2018-04-10T07:06:09.482Z,30.70
2018-04-10T07:07:09.475Z,29.40
2018-04-10T07:08:09.478Z,30.90
2018-04-10T07:09:09.439Z,27.50
2018-04-10T07:10:09.431Z,29.70
2018-04-10T07:11:09.418Z,27.20
2018-04-10T07:12:09.405Z,27.00
2018-04-10T07:13:09.856Z,28.70
2018-04-10T07:14:09.389Z,27.10
2018-04-10T07:15:09.361Z,28.30
2018-04-10T07:16:09.354Z,29.10
2018-04-10T07:17:09.339Z,26.40
2018-04-10T07:18:09.320Z,26.40
2018-04-10T07:19:09.337Z,28.80
2018-04-10T07:20:09.303Z,29.60
2018-04-10T07:21:09.288Z,27.00
2018-04-10T07:22:09.279Z,26.40
2018-04-10T07:23:09.263Z,29.40
2018-04-10T07:24:09.267Z,26.60
2018-04-10T07:25:09.234Z,28.50
2018-04-10T07:26:09.223Z,26.10
2018-04-10T07:27:09.248Z,27.90
2018-04-10T07:28:09.193Z,26.40
2018-04-10T07:29:09.183Z,26.30
2018-04-10T07:30:09.202Z,28.00
2018-04-10T07:31:09.174Z,29.90
2018-04-10T07:32:09.164Z,25.80
2018-04-10T07:33:09.138Z,24.80
2018-04-10T07:34:09.127Z,25.30
2018-04-10T07:35:09.226Z,26.20
2018-04-10T07:36:09.107Z,27.00
2018-04-10T07:37:09.088Z,23.00
2018-04-10T07:38:09.076Z,25.20
2018-04-10T07:39:09.060Z,22.70
2018-04-10T07:40:09.072Z,24.00
2018-04-10T07:41:09.057Z,23.20
2018-04-10T07:42:09.025Z,23.70
2018-04-10T07:43:09.009Z,20.70
2018-04-10T07:44:09.005Z,21.50
2018-04-10T07:45:08.989Z,21.20
2018-04-10T07:46:09.012Z,20.30
2018-04-10T07:47:08.967Z,19.60
2018-04-10T07:48:08.955Z,17.70
2018-04-10T07:49:08.941Z,18.50
2018-04-10T07:50:08.929Z,20.30
2018-04-10T07:51:08.949Z,19.90
2018-04-10T07:52:08.904Z,21.20
2018-04-10T07:53:08.888Z,18.30
2018-04-10T07:54:08.877Z,18.40
2018-04-10T07:55:08.862Z,19.70
2018-04-10T07:56:08.858Z,18.20
2018-04-10T07:57:08.866Z,17.80
2018-04-10T07:58:08.831Z,17.50
2018-04-10T07:59:08.825Z,17.90
2018-04-10T08:00:08.816Z,19.00
2018-04-10T08:01:08.793Z,19.80
2018-04-10T08:02:08.792Z,18.60
2018-04-10T08:03:08.794Z,16.60
2018-04-10T08:04:08.757Z,19.40
2018-04-10T08:05:08.750Z,17.60
2018-04-10T08:06:08.748Z,17.80
2018-04-10T08:07:08.746Z,17.50
2018-04-10T08:08:08.720Z,17.40
2018-04-10T08:09:08.724Z,19.10
2018-04-10T08:10:08.694Z,18.30
2018-04-10T08:11:08.683Z,17.50
2018-04-10T08:12:10.632Z,17.30
2018-04-10T08:13:08.661Z,17.50
2018-04-10T08:14:08.662Z,17.00
2018-04-10T08:15:08.636Z,17.90
2018-04-10T08:16:08.632Z,18.20
2018-04-10T08:17:08.611Z,16.60
2018-04-10T08:18:08.598Z,16.60
2018-04-10T08:19:08.594Z,17.50
2018-04-10T08:20:08.606Z,15.60
2018-04-10T08:21:08.573Z,15.20
2018-04-10T08:22:08.568Z,14.90
2018-04-10T08:23:08.549Z,13.70
2018-04-10T08:24:08.543Z,12.70
2018-04-10T08:25:08.546Z,13.60
2018-04-10T08:26:08.517Z,13.30
2018-04-10T08:27:08.513Z,13.30
2018-04-10T08:28:08.501Z,13.80
2018-04-10T08:29:08.481Z,13.20
2018-04-10T08:30:08.489Z,13.80
2018-04-10T08:31:08.464Z,13.10
2018-04-10T08:32:08.444Z,11.30
2018-04-10T08:33:08.452Z,12.60
2018-04-10T08:34:08.425Z,10.00
2018-04-10T08:35:08.421Z,10.90
2018-04-10T08:36:08.423Z,12.80
2018-04-10T08:37:08.390Z,10.80
2018-04-10T08:38:08.381Z,9.60
2018-04-10T08:39:08.378Z,10.60
2018-04-10T08:40:08.364Z,13.00
2018-04-10T08:41:08.380Z,10.80
2018-04-10T08:42:08.340Z,10.80
2018-04-10T08:43:08.333Z,10.70
2018-04-10T08:44:09.181Z,11.00
2018-04-10T08:45:08.310Z,13.00
2018-04-10T08:46:08.303Z,12.00
2018-04-10T08:47:08.303Z,12.00
2018-04-10T08:48:08.271Z,11.90
2018-04-10T08:49:08.271Z,10.30
2018-04-10T08:50:09.144Z,11.80
2018-04-10T08:51:08.248Z,11.60
2018-04-10T08:52:08.257Z,9.70
2018-04-10T08:53:08.233Z,9.00
2018-04-10T08:54:08.213Z,9.90
2018-04-10T08:55:08.206Z,9.40
2018-04-10T08:56:08.199Z,8.10
2018-04-10T08:57:10.144Z,7.90
2018-04-10T08:58:08.191Z,7.90
2018-04-10T08:59:08.165Z,8.80
2018-04-10T09:00:08.155Z,9.20
2018-04-10T09:01:08.146Z,9.90
2018-04-10T09:02:08.138Z,8.60
2018-04-10T09:03:08.162Z,10.40
2018-04-10T09:04:08.119Z,7.30
2018-04-10T09:05:08.108Z,7.50
2018-04-10T09:06:08.103Z,7.40
2018-04-10T09:07:08.090Z,9.10
2018-04-10T09:08:08.070Z,8.50
2018-04-10T09:09:08.086Z,10.10
2018-04-10T09:10:08.062Z,8.80
2018-04-10T09:11:08.044Z,12.20
2018-04-10T09:12:08.040Z,8.40
2018-04-10T09:13:08.031Z,7.60
2018-04-10T09:14:08.035Z,9.40
2018-04-10T09:15:08.011Z,8.60
2018-04-10T09:16:07.999Z,7.30
2018-04-10T09:17:07.988Z,7.70
2018-04-10T09:18:07.984Z,8.20
2018-04-10T09:19:08.003Z,6.80
2018-04-10T09:20:07.961Z,7.10
2018-04-10T09:21:07.949Z,8.00
2018-04-10T09:22:07.935Z,6.90
2018-04-10T09:23:07.927Z,7.00
2018-04-10T09:24:07.934Z,8.40
2018-04-10T09:25:07.927Z,9.00
2018-04-10T09:26:07.907Z,8.90
2018-04-10T09:27:07.885Z,10.40
2018-04-10T09:28:07.884Z,9.80
2018-04-10T09:29:07.883Z,9.50
2018-04-10T09:30:07.876Z,9.70
2018-04-10T09:31:07.862Z,9.70
2018-04-10T09:32:07.837Z,9.60
2018-04-10T09:33:07.826Z,8.90
2018-04-10T09:34:07.816Z,8.60
2018-04-10T09:35:07.817Z,11.20
2018-04-10T09:36:07.798Z,9.50
2018-04-10T09:37:07.816Z,10.20
2018-04-10T09:38:07.778Z,10.20
2018-04-10T09:39:07.777Z,8.40
2018-04-10T09:40:07.768Z,10.10
2018-04-10T09:41:07.750Z,10.50
2018-04-10T09:42:07.758Z,11.00
2018-04-10T09:43:07.728Z,9.50
2018-04-10T09:44:07.713Z,9.90
2018-04-10T09:45:07.709Z,8.90
2018-04-10T09:46:07.693Z,10.20
2018-04-10T09:47:07.689Z,9.50
2018-04-10T09:48:07.695Z,8.40
2018-04-10T09:49:07.669Z,8.80
2018-04-10T09:50:07.657Z,9.10
2018-04-10T09:51:07.643Z,10.90
2018-04-10T09:52:07.637Z,10.00
2018-04-10T09:53:07.638Z,10.40
2018-04-10T09:54:08.661Z,9.20
2018-04-10T09:55:07.614Z,9.40
2018-04-10T09:56:07.610Z,9.30
2018-04-10T09:57:07.601Z,12.20
2018-04-10T09:58:07.578Z,10.40
2018-04-10T09:59:07.580Z,12.00
2018-04-10T10:00:07.556Z,9.80
2018-04-10T10:01:07.544Z,9.40
2018-04-10T10:02:07.534Z,12.20
2018-04-10T10:03:07.530Z,9.60
2018-04-10T10:04:07.538Z,8.50
2018-04-10T10:05:07.510Z,10.50
2018-04-10T10:06:07.493Z,6.60
2018-04-10T10:07:07.479Z,8.20
2018-04-10T10:08:07.470Z,9.10
2018-04-10T10:09:07.464Z,8.30
2018-04-10T10:10:07.468Z,10.00
2018-04-10T10:11:07.472Z,8.90
2018-04-10T10:12:07.436Z,7.80
2018-04-10T10:13:07.423Z,8.40
2018-04-10T10:14:07.415Z,9.10
2018-04-10T10:15:07.406Z,8.50
2018-04-10T10:16:07.405Z,10.50
2018-04-10T10:17:07.401Z,7.90
2018-04-10T10:18:07.375Z,8.90
2018-04-10T10:19:07.366Z,8.10
2018-04-10T10:20:07.360Z,8.00
2018-04-10T10:21:07.363Z,7.50
2018-04-10T10:22:07.360Z,9.50
2018-04-10T10:23:07.348Z,6.60
2018-04-10T10:24:07.331Z,6.60
2018-04-10T10:25:07.323Z,6.70
2018-04-10T10:26:07.314Z,7.80
2018-04-10T10:27:07.290Z,7.30
2018-04-10T10:28:07.293Z,6.30
2018-04-10T10:29:07.271Z,7.30
2018-04-10T10:30:07.264Z,8.20
2018-04-10T10:31:07.248Z,8.60
2018-04-10T10:32:07.245Z,9.20
2018-04-10T10:33:07.235Z,8.20
2018-04-10T10:34:07.247Z,7.90
2018-04-10T10:35:07.212Z,7.90
2018-04-10T10:36:07.210Z,8.10
2018-04-10T10:37:07.206Z,9.50
2018-04-10T10:38:07.208Z,7.50
2018-04-10T10:39:07.251Z,9.90
2018-04-10T10:40:07.173Z,7.50
2018-04-10T10:41:07.712Z,8.70
2018-04-10T10:42:07.148Z,8.40
2018-04-10T10:43:07.146Z,7.50
2018-04-10T10:44:07.150Z,7.60
2018-04-10T10:45:07.151Z,7.70
2018-04-10T10:46:07.119Z,8.00
2018-04-10T10:47:07.133Z,9.30
2018-04-10T10:48:07.112Z,9.50
2018-04-10T10:49:07.677Z,8.60
2018-04-10T10:50:07.096Z,6.90
2018-04-10T10:51:07.081Z,6.90
2018-04-10T10:52:07.085Z,7.80
2018-04-10T10:53:07.065Z,8.10
2018-04-10T10:54:07.056Z,7.10
2018-04-10T10:55:07.047Z,8.10
2018-04-10T10:56:07.038Z,7.20
2018-04-10T10:57:07.044Z,8.10
2018-04-10T10:58:07.069Z,7.20
2018-04-10T10:59:07.017Z,7.10
2018-04-10T11:00:07.003Z,7.60
2018-04-10T11:01:06.999Z,7.50
2018-04-10T11:02:07.000Z,6.70
2018-04-10T11:03:06.983Z,7.60
2018-04-10T11:04:06.974Z,6.40
2018-04-10T11:05:06.969Z,6.30
2018-04-10T11:06:06.956Z,8.20
2018-04-10T11:07:06.974Z,7.60
2018-04-10T11:08:06.938Z,7.10
2018-04-10T11:09:06.935Z,7.50
2018-04-10T11:10:06.922Z,7.50
2018-04-10T11:11:06.925Z,7.30
2018-04-10T11:12:06.900Z,6.50
2018-04-10T11:13:06.925Z,8.30
2018-04-10T11:14:06.893Z,7.50
2018-04-10T11:15:06.886Z,6.30
2018-04-10T11:16:06.871Z,7.30
2018-04-10T11:17:06.867Z,6.30
2018-04-10T11:18:06.862Z,6.30
2018-04-10T11:19:06.875Z,8.20
2018-04-10T11:20:06.846Z,4.90
2018-04-10T11:21:06.878Z,6.30
2018-04-10T11:22:06.833Z,7.60
2018-04-10T11:23:06.818Z,6.90
2018-04-10T11:24:06.849Z,6.60
2018-04-10T11:25:06.815Z,8.20
2018-04-10T11:26:06.828Z,8.00
2018-04-10T11:27:06.793Z,6.60
2018-04-10T11:28:06.788Z,7.80
2018-04-10T11:29:06.783Z,6.20
2018-04-10T11:30:06.787Z,7.10
2018-04-10T11:31:06.763Z,7.70
2018-04-10T11:32:06.758Z,6.10
2018-04-10T11:33:06.749Z,6.80
2018-04-10T11:34:06.742Z,8.40
2018-04-10T11:35:06.776Z,5.70
2018-04-10T11:36:06.745Z,5.20
2018-04-10T11:37:06.720Z,5.70
2018-04-10T11:38:06.719Z,5.50
2018-04-10T11:39:06.713Z,6.90
2018-04-10T11:40:06.706Z,5.10
2018-04-10T11:41:09.331Z,6.00
2018-04-10T11:42:06.731Z,5.50
2018-04-10T11:43:06.696Z,5.90
2018-04-10T11:44:06.687Z,5.90
2018-04-10T11:45:07.113Z,7.20
2018-04-10T11:46:06.676Z,5.40
2018-04-10T11:47:06.668Z,7.40
2018-04-10T11:48:06.647Z,7.70
2018-04-10T11:49:06.641Z,5.60
2018-04-10T11:50:06.633Z,6.10
2018-04-10T11:51:06.626Z,6.60
2018-04-10T11:52:06.657Z,7.90
2018-04-10T11:53:06.609Z,6.30
2018-04-10T11:54:06.600Z,6.60
2018-04-10T11:55:06.596Z,5.90
2018-04-10T11:56:06.591Z,6.30
2018-04-10T11:57:06.586Z,6.30
2018-04-10T11:58:06.604Z,7.00
2018-04-10T11:59:06.568Z,6.70
2018-04-10T12:00:08.456Z,6.80
2018-04-10T12:01:06.561Z,7.20
2018-04-10T12:02:06.604Z,8.10
2018-04-10T12:03:09.504Z,7.80
2018-04-10T12:04:06.535Z,6.00
2018-04-10T12:05:06.537Z,7.20
2018-04-10T12:06:06.540Z,5.30
2018-04-10T12:07:06.518Z,5.50
2018-04-10T12:08:06.513Z,5.50
2018-04-10T12:09:06.523Z,6.90
2018-04-10T12:10:06.501Z,6.20
2018-04-10T12:11:06.495Z,6.10
2018-04-10T12:12:06.503Z,7.00
2018-04-10T12:13:06.483Z,5.00
2018-04-10T12:14:06.495Z,6.00
2018-04-10T12:15:06.471Z,6.90
2018-04-10T12:16:06.469Z,5.90
2018-04-10T12:17:06.455Z,5.10
2018-04-10T12:18:06.449Z,6.90
2018-04-10T12:19:06.454Z,5.40
2018-04-10T12:20:06.443Z,10.20
2018-04-10T12:21:06.443Z,5.60
2018-04-10T12:22:06.436Z,7.20
2018-04-10T12:23:06.416Z,5.40
2018-04-10T12:24:06.430Z,5.00
2018-04-10T12:25:06.410Z,7.00
2018-04-10T12:26:06.406Z,6.00
2018-04-10T12:27:06.392Z,6.30
2018-04-10T12:28:06.379Z,5.30
2018-04-10T12:29:06.374Z,5.70
2018-04-10T12:30:06.366Z,7.30
2018-04-10T12:31:06.398Z,4.50
2018-04-10T12:32:06.353Z,5.80
2018-04-10T12:33:06.342Z,5.40
2018-04-10T12:34:06.338Z,7.90
2018-04-10T12:35:06.327Z,5.00
2018-04-10T12:36:06.324Z,5.80
2018-04-10T12:37:06.334Z,6.10
2018-04-10T12:38:06.307Z,6.70
2018-04-10T12:39:06.302Z,5.60
2018-04-10T12:40:06.289Z,6.20
2018-04-10T12:41:06.287Z,7.60
2018-04-10T12:42:06.276Z,4.60
2018-04-10T12:43:06.322Z,7.60
2018-04-10T12:44:06.287Z,6.50
2018-04-10T12:45:06.264Z,7.00
2018-04-10T12:46:06.253Z,6.00
2018-04-10T12:47:06.240Z,6.90
2018-04-10T12:48:06.251Z,5.30
2018-04-10T12:49:06.230Z,7.50
2018-04-10T12:50:06.212Z,6.90
2018-04-10T12:51:06.227Z,9.30
2018-04-10T12:52:06.208Z,9.20
2018-04-10T12:53:06.190Z,8.20
2018-04-10T12:54:06.188Z,6.50
2018-04-10T12:55:06.174Z,7.00
2018-04-10T12:56:06.180Z,6.30
2018-04-10T12:57:06.180Z,9.40
2018-04-10T12:58:06.160Z,6.70
2018-04-10T12:59:06.146Z,7.00
2018-04-10T13:00:06.135Z,6.60
2018-04-10T13:01:06.147Z,7.80
2018-04-10T13:02:06.135Z,7.90
2018-04-10T13:03:06.117Z,6.30
2018-04-10T13:04:06.104Z,7.40
2018-04-10T13:05:06.097Z,7.10